Time;durP1;ratioP1;P1;durP2;ratioP2;P2;SDS_P1;SDS_P2;PMS_P1;PMS_P2;Temp;Humidity;BMP_temperature;BMP_pressure;BME280_temperature;BME280_humidity;BME280_pressure;Samples;Min_cycle;Max_cycle;Signal;HPM_P1;HPM_P2
2022/09/13 00:00:28;;;;;;;5.60;4.93;;;9.90;99.90;;;;;;5093905;28;20479;-52
2022/09/13 00:02:54;;;;;;;8.77;4.85;;;9.90;99.90;;;;;;5093356;28;20024;-52
2022/09/13 00:05:19;;;;;;;4.57;4.18;;;9.90;99.90;;;;;;5093988;28;20028;-51
2022/09/13 00:07:45;;;;;;;5.53;4.75;;;9.90;99.90;;;;;;5093717;28;20078;-50
2022/09/13 00:10:11;;;;;;;9.10;4.53;;;9.90;99.90;;;;;;5093741;28;20115;-51
2022/09/13 00:12:36;;;;;;;5.25;4.75;;;9.80;99.90;;;;;;5093562;28;20095;-50
2022/09/13 00:15:02;;;;;;;7.00;4.55;;;9.80;99.90;;;;;;5093934;28;20035;-50
2022/09/13 00:17:28;;;;;;;6.75;4.88;;;9.80;99.90;;;;;;5093538;28;20078;-54
2022/09/13 00:19:54;;;;;;;8.23;4.40;;;9.80;99.90;;;;;;5093705;28;20024;-51
2022/09/13 00:22:19;;;;;;;5.05;4.55;;;9.80;99.90;;;;;;5093639;28;20085;-51
2022/09/13 00:24:45;;;;;;;5.13;4.50;;;9.70;99.90;;;;;;5093405;28;20051;-51
2022/09/13 00:27:11;;;;;;;10.90;5.40;;;9.70;99.90;;;;;;5093599;28;20024;-51
2022/09/13 00:29:37;;;;;;;8.40;4.63;;;9.70;99.90;;;;;;5093242;28;20031;-51
2022/09/13 00:32:03;;;;;;;9.20;4.40;;;9.60;99.90;;;;;;5093410;28;20019;-52
2022/09/13 00:34:29;;;;;;;7.03;4.70;;;9.60;99.90;;;;;;5093332;28;20024;-51
2022/09/13 00:36:55;;;;;;;6.78;4.75;;;9.60;99.90;;;;;;5093359;28;20471;-50
2022/09/13 00:39:21;;;;;;;6.05;4.82;;;9.60;99.90;;;;;;5093269;28;20059;-52
2022/09/13 00:41:47;;;;;;;11.38;5.05;;;9.50;99.90;;;;;;5092979;28;20459;-50
2022/09/13 00:44:43;;;;;;;6.60;4.95;;;9.50;99.90;;;;;;5093302;28;20085;-50
2022/09/13 00:47:11;;;;;;;5.15;4.60;;;9.50;99.90;;;;;;5091854;28;20032;-51
2022/09/13 00:49:39;;;;;;;6.75;5.00;;;9.50;99.90;;;;;;5092802;28;20085;-51
2022/09/13 00:52:11;;;;;;;6.07;5.05;;;9.40;99.90;;;;;;5093099;28;20052;-51
2022/09/13 00:54:44;;;;;;;7.18;4.82;;;9.40;99.90;;;;;;5092936;28;20413;-51
2022/09/13 00:57:12;;;;;;;11.50;6.10;;;9.40;99.90;;;;;;5093049;28;20016;-51
2022/09/13 00:59:53;;;;;;;7.32;4.80;;;9.30;99.90;;;;;;5092800;28;20507;-51
2022/09/13 01:02:20;;;;;;;13.55;6.07;;;9.30;99.90;;;;;;5092876;28;20073;-51
2022/09/13 01:04:45;;;;;;;5.43;4.82;;;9.20;99.90;;;;;;5092546;28;20075;-51
2022/09/13 01:07:14;;;;;;;10.18;4.95;;;9.20;99.90;;;;;;5092971;28;20066;-50
2022/09/13 01:09:43;;;;;;;7.00;4.97;;;9.20;99.90;;;;;;5092204;28;20047;-52
2022/09/13 01:12:38;;;;;;;6.20;5.20;;;9.20;99.90;;;;;;5092720;28;20024;-52
2022/09/13 01:15:05;;;;;;;8.82;7.35;;;9.20;99.90;;;;;;5091856;28;20035;-51
2022/09/13 01:17:32;;;;;;;8.90;4.72;;;9.20;99.90;;;;;;5092558;28;20099;-50
2022/09/13 01:20:00;;;;;;;8.68;5.15;;;9.20;99.90;;;;;;5092402;28;20053;-52
2022/09/13 01:22:56;;;;;;;9.05;4.93;;;9.20;99.90;;;;;;5092419;28;20139;-50
2022/09/13 01:25:57;;;;;;;17.50;6.28;;;9.20;99.90;;;;;;5092413;28;20081;-50
2022/09/13 01:28:46;;;;;;;8.57;5.15;;;9.20;99.90;;;;;;5092317;28;20490;-51
2022/09/13 01:31:19;;;;;;;7.05;5.53;;;9.10;99.90;;;;;;5091707;28;20061;-51
2022/09/13 01:33:55;;;;;;;7.40;5.53;;;9.10;99.90;;;;;;5092156;28;20020;-51
2022/09/13 01:36:41;;;;;;;8.15;5.13;;;9.00;99.90;;;;;;5091818;28;20032;-51
2022/09/13 01:39:47;;;;;;;6.20;5.53;;;9.00;99.90;;;;;;5092183;28;20024;-50
2022/09/13 01:42:25;;;;;;;9.05;5.65;;;9.00;99.90;;;;;;5083673;28;20044;-52
2022/09/13 01:45:02;;;;;;;9.07;5.28;;;9.00;99.90;;;;;;5092257;28;20077;-51
2022/09/13 01:47:28;;;;;;;7.40;5.30;;;9.00;99.90;;;;;;5090664;28;20031;-51
2022/09/13 01:50:20;;;;;;;6.13;5.53;;;8.90;99.90;;;;;;5091871;28;20028;-50
2022/09/13 01:52:56;;;;;;;10.40;5.20;;;8.90;99.90;;;;;;5091795;28;20028;-50
2022/09/13 01:55:30;;;;;;;10.73;5.72;;;8.90;99.90;;;;;;5091877;28;20020;-52
2022/09/13 01:58:20;;;;;;;5.45;4.10;;;8.90;99.90;;;;;;5090539;28;20031;-50
2022/09/13 02:01:16;;;;;;;8.90;4.60;;;8.90;99.90;;;;;;5091822;28;20424;-52
2022/09/13 02:03:56;;;;;;;8.50;5.00;;;8.80;99.90;;;;;;5067381;28;20075;-51
2022/09/13 02:06:35;;;;;;;5.90;4.65;;;8.80;99.90;;;;;;5091681;28;20051;-51
2022/09/13 02:09:08;;;;;;;6.10;4.80;;;8.70;99.90;;;;;;5091516;28;20101;-52
2022/09/13 02:11:36;;;;;;;18.88;5.45;;;8.70;99.90;;;;;;5091591;28;20024;-52
2022/09/13 02:14:16;;;;;;;5.95;5.35;;;8.70;99.90;;;;;;5091664;28;20105;-51
2022/09/13 02:16:52;;;;;;;6.32;5.60;;;8.70;99.90;;;;;;5091439;28;20035;-52
2022/09/13 02:19:32;;;;;;;9.10;5.40;;;8.70;99.90;;;;;;5091594;28;20367;-50
2022/09/13 02:21:59;;;;;;;6.25;5.18;;;8.70;99.90;;;;;;5091498;28;20028;-50
2022/09/13 02:24:41;;;;;;;8.10;5.13;;;8.60;99.90;;;;;;5091581;28;20050;-53
2022/09/13 02:27:15;;;;;;;8.95;5.30;;;8.70;99.90;;;;;;5095793;28;20028;-50
2022/09/13 02:29:51;;;;;;;9.95;6.28;;;8.60;99.90;;;;;;5095544;28;20024;-51
2022/09/13 02:32:24;;;;;;;8.85;5.97;;;8.60;99.90;;;;;;5095580;28;20104;-49
2022/09/13 02:35:08;;;;;;;20.30;7.78;;;8.60;99.90;;;;;;5095667;28;20020;-51
2022/09/13 02:37:37;;;;;;;15.98;6.32;;;8.60;99.90;;;;;;5094140;28;20032;-50
2022/09/13 02:40:12;;;;;;;9.55;6.57;;;8.60;99.90;;;;;;5095637;28;20078;-50
2022/09/13 02:42:47;;;;;;;11.57;6.30;;;8.50;99.90;;;;;;5095413;28;20035;-50
2022/09/13 02:45:14;;;;;;;17.33;7.00;;;8.50;99.90;;;;;;5095551;28;20059;-51
2022/09/13 02:48:09;;;;;;;6.93;5.97;;;8.40;99.90;;;;;;5095338;28;20027;-51
2022/09/13 02:51:01;;;;;;;7.10;5.78;;;8.40;99.90;;;;;;5095178;28;20107;-50
2022/09/13 02:53:52;;;;;;;9.13;5.65;;;8.40;99.90;;;;;;5070910;28;20036;-50
2022/09/13 02:56:46;;;;;;;8.93;6.47;;;8.40;99.90;;;;;;5095214;28;20020;-50
2022/09/13 02:59:18;;;;;;;6.28;5.72;;;8.50;99.90;;;;;;5095315;28;20053;-50
2022/09/13 03:01:49;;;;;;;6.68;5.97;;;8.40;99.90;;;;;;5095121;28;20039;-51
2022/09/13 03:04:15;;;;;;;5.72;5.22;;;8.40;99.90;;;;;;5095210;28;20035;-53
2022/09/13 03:06:41;;;;;;;5.60;5.00;;;8.50;99.90;;;;;;5094948;28;20028;-51
2022/09/13 03:09:07;;;;;;;6.00;5.30;;;8.40;99.90;;;;;;5094829;28;20040;-50
2022/09/13 03:11:45;;;;;;;8.45;4.75;;;8.40;99.90;;;;;;5094863;28;20504;-50
2022/09/13 03:14:53;;;;;;;9.95;5.57;;;8.40;99.90;;;;;;5093737;28;20024;-51
2022/09/13 03:17:22;;;;;;;7.07;5.38;;;8.40;99.90;;;;;;5045278;28;20550;-50
2022/09/13 03:19:53;;;;;;;6.88;5.00;;;8.40;99.90;;;;;;5094623;28;20455;-52
2022/09/13 03:22:40;;;;;;;6.72;5.63;;;8.40;99.90;;;;;;5094847;28;20726;-50
2022/09/13 03:25:19;;;;;;;5.43;4.53;;;8.30;99.90;;;;;;5094795;28;20056;-50
2022/09/13 03:28:22;;;;;;;10.82;5.70;;;8.40;99.90;;;;;;5094670;28;20554;-52
2022/09/13 03:30:59;;;;;;;6.00;5.40;;;8.40;99.90;;;;;;5094489;28;20028;-50
2022/09/13 03:33:33;;;;;;;12.52;6.28;;;8.40;99.90;;;;;;5094570;28;20020;-52
2022/09/13 03:36:11;;;;;;;9.15;6.25;;;8.40;99.90;;;;;;5094072;28;20028;-50
2022/09/13 03:39:19;;;;;;;7.82;6.60;;;8.30;99.90;;;;;;5094126;28;20043;-52
2022/09/13 03:41:51;;;;;;;10.45;6.55;;;8.30;99.90;;;;;;5064246;28;20032;-52
2022/09/13 03:44:20;;;;;;;8.88;5.55;;;8.30;99.90;;;;;;5094322;28;20024;-54
2022/09/13 03:46:50;;;;;;;6.80;6.07;;;8.30;99.90;;;;;;5094134;28;20112;-52
2022/09/13 03:49:18;;;;;;;9.60;6.05;;;8.30;99.90;;;;;;5094222;28;20020;-51
2022/09/13 03:51:47;;;;;;;7.20;5.28;;;8.20;99.90;;;;;;5094015;28;20028;-52
2022/09/13 03:54:38;;;;;;;9.35;6.13;;;8.20;99.90;;;;;;5094177;28;20467;-51
2022/09/13 03:57:12;;;;;;;24.20;9.20;;;8.20;99.90;;;;;;5094100;28;20023;-50
2022/09/13 03:59:51;;;;;;;7.65;5.85;;;8.30;99.90;;;;;;5093890;28;20030;-52
2022/09/13 04:02:18;;;;;;;9.43;5.22;;;8.20;99.90;;;;;;5093924;28;20539;-53
2022/09/13 04:04:45;;;;;;;6.82;5.43;;;8.20;99.90;;;;;;5093765;28;20090;-51
2022/09/13 04:07:14;;;;;;;5.88;5.22;;;8.20;99.90;;;;;;5093710;28;20475;-52
2022/09/13 04:09:39;;;;;;;7.93;5.40;;;8.20;99.90;;;;;;5093289;28;20051;-50
2022/09/13 04:12:06;;;;;;;10.48;7.28;;;8.20;99.90;;;;;;5092161;28;20572;-51
2022/09/13 04:14:32;;;;;;;6.18;5.43;;;8.20;99.90;;;;;;5093267;28;20031;-51
2022/09/13 04:16:58;;;;;;;5.40;4.90;;;8.20;99.90;;;;;;5093364;28;20103;-54
2022/09/13 04:19:24;;;;;;;8.95;5.85;;;8.10;99.90;;;;;;5093759;28;20107;-51
2022/09/13 04:21:51;;;;;;;8.00;5.68;;;8.00;99.90;;;;;;5093630;28;20039;-51
2022/09/13 04:24:18;;;;;;;7.05;5.50;;;8.00;99.90;;;;;;5093533;28;20103;-52
2022/09/13 04:26:47;;;;;;;9.15;5.35;;;8.00;99.90;;;;;;5093383;28;20481;-52
2022/09/13 04:29:13;;;;;;;8.38;4.82;;;8.00;99.90;;;;;;5093484;28;20043;-54
2022/09/13 04:31:38;;;;;;;12.98;5.75;;;8.00;99.90;;;;;;5093016;28;20028;-51
2022/09/13 04:34:05;;;;;;;6.05;4.88;;;8.00;99.90;;;;;;5093341;28;20107;-52
2022/09/13 04:36:31;;;;;;;7.22;4.88;;;8.10;99.90;;;;;;5091541;28;20038;-52
2022/09/13 04:38:58;;;;;;;8.82;5.30;;;8.10;99.90;;;;;;5092884;28;20495;-53
2022/09/13 04:41:24;;;;;;;13.80;5.10;;;8.10;99.90;;;;;;5092853;28;20111;-52
2022/09/13 04:43:49;;;;;;;7.13;5.05;;;8.10;99.90;;;;;;5093142;28;20098;-50
2022/09/13 04:46:16;;;;;;;8.45;5.28;;;8.10;99.90;;;;;;5093228;28;20483;-51
2022/09/13 04:48:41;;;;;;;12.88;5.75;;;8.10;99.90;;;;;;5092664;28;20026;-50
2022/09/13 04:51:07;;;;;;;9.27;5.18;;;8.20;99.90;;;;;;5093094;28;20619;-51
2022/09/13 04:53:33;;;;;;;6.53;4.90;;;8.20;99.90;;;;;;5091205;28;20044;-51
2022/09/13 04:56:00;;;;;;;6.13;5.35;;;8.20;99.90;;;;;;5092387;28;20024;-50
2022/09/13 04:58:26;;;;;;;8.60;6.13;;;8.20;99.90;;;;;;5091412;28;20024;-55
2022/09/13 05:00:55;;;;;;;5.35;4.88;;;8.20;99.90;;;;;;5091543;28;20028;-50
2022/09/13 05:03:21;;;;;;;7.60;5.38;;;8.20;99.90;;;;;;5091586;28;20028;-50
2022/09/13 05:05:47;;;;;;;6.25;4.93;;;8.20;99.90;;;;;;5091155;28;20424;-50
2022/09/13 05:08:13;;;;;;;7.13;4.45;;;8.20;99.90;;;;;;5091222;28;20048;-50
2022/09/13 05:10:38;;;;;;;5.25;4.85;;;8.20;99.90;;;;;;5091153;28;20063;-50
2022/09/13 05:13:04;;;;;;;4.97;4.43;;;8.20;99.90;;;;;;5091396;28;20039;-51
2022/09/13 05:15:30;;;;;;;6.80;4.82;;;8.20;99.90;;;;;;5091019;28;20417;-51
2022/09/13 05:17:55;;;;;;;6.25;4.68;;;8.30;99.90;;;;;;5091366;28;20016;-51
2022/09/13 05:20:21;;;;;;;11.07;4.70;;;8.30;99.90;;;;;;5091250;28;20081;-54
2022/09/13 05:22:46;;;;;;;8.05;5.45;;;8.40;99.90;;;;;;5091014;28;20023;-52
2022/09/13 05:25:12;;;;;;;10.95;4.95;;;8.40;99.90;;;;;;5090003;28;20486;-51
2022/09/13 05:27:38;;;;;;;7.15;5.50;;;8.50;99.90;;;;;;5090873;28;20540;-50
2022/09/13 05:30:04;;;;;;;5.88;5.20;;;8.50;99.90;;;;;;5090929;28;20048;-51
2022/09/13 05:32:31;;;;;;;7.70;4.55;;;8.50;99.90;;;;;;5090898;28;20020;-51
2022/09/13 05:34:56;;;;;;;19.52;6.20;;;8.60;99.90;;;;;;5089588;28;20034;-52
2022/09/13 05:37:22;;;;;;;12.18;5.55;;;8.70;99.90;;;;;;5090987;28;20020;-51
2022/09/13 05:39:48;;;;;;;10.43;5.57;;;8.80;99.90;;;;;;5090810;28;20024;-51
2022/09/13 05:42:13;;;;;;;8.60;5.53;;;8.80;99.90;;;;;;5090945;28;20114;-51
2022/09/13 05:44:39;;;;;;;7.25;5.55;;;8.80;99.90;;;;;;5090741;28;20028;-50
2022/09/13 05:47:05;;;;;;;9.05;4.82;;;8.90;99.90;;;;;;5089426;28;20479;-50
2022/09/13 05:49:31;;;;;;;9.85;5.47;;;9.00;99.90;;;;;;5090524;28;20050;-50
2022/09/13 05:51:56;;;;;;;9.52;5.93;;;9.20;99.90;;;;;;5090766;28;20028;-50
2022/09/13 05:54:22;;;;;;;13.15;5.95;;;9.40;99.90;;;;;;5090692;28;20012;-50
2022/09/13 05:56:47;;;;;;;11.65;6.13;;;9.50;99.90;;;;;;5090438;28;20032;-51
2022/09/13 05:59:13;;;;;;;13.23;5.75;;;9.60;99.90;;;;;;5090150;28;20020;-51
2022/09/13 06:01:39;;;;;;;12.23;6.10;;;9.70;99.90;;;;;;5090606;28;20470;-50
2022/09/13 06:04:05;;;;;;;9.85;5.45;;;9.90;99.90;;;;;;5090503;28;20612;-50
2022/09/13 06:06:30;;;;;;;14.68;6.45;;;10.10;99.90;;;;;;5090025;28;20035;-51
2022/09/13 06:08:57;;;;;;;7.22;5.00;;;10.30;99.90;;;;;;5090216;28;20097;-50
2022/09/13 06:11:25;;;;;;;12.82;5.57;;;10.40;99.90;;;;;;5090388;28;20028;-50
2022/09/13 06:13:50;;;;;;;8.65;5.53;;;10.40;99.90;;;;;;5090389;28;20024;-51
2022/09/13 06:16:16;;;;;;;9.18;5.80;;;10.50;99.90;;;;;;5090409;28;20078;-50
2022/09/13 06:18:43;;;;;;;8.30;6.18;;;10.50;99.90;;;;;;5090202;28;20032;-51
2022/09/13 06:21:16;;;;;;;9.32;6.25;;;10.70;99.90;;;;;;5090589;28;20027;-50
2022/09/13 06:23:44;;;;;;;9.40;6.45;;;10.90;99.90;;;;;;5090451;28;20532;-51
2022/09/13 06:26:12;;;;;;;8.48;6.55;;;11.10;99.90;;;;;;5090209;28;20027;-50
2022/09/13 06:28:38;;;;;;;14.20;6.43;;;11.20;99.90;;;;;;5089878;28;20020;-51
2022/09/13 06:31:12;;;;;;;17.55;5.60;;;11.30;99.90;;;;;;5090205;28;20378;-55
2022/09/13 06:33:38;;;;;;;;;;;11.40;99.90;;;;;;5090538;28;20031;-50
2022/09/13 06:36:19;;;;;;;7.40;5.70;;;11.50;99.90;;;;;;5090166;28;20362;-51
2022/09/13 06:38:48;;;;;;;8.65;5.18;;;11.60;99.90;;;;;;5090071;28;20235;-51
2022/09/13 06:41:19;;;;;;;11.07;5.60;;;11.70;99.90;;;;;;5090221;28;20069;-50
2022/09/13 06:43:46;;;;;;;9.20;5.60;;;11.80;99.90;;;;;;5089958;28;20024;-53
2022/09/13 06:46:14;;;;;;;9.98;4.85;;;11.80;99.90;;;;;;5090122;28;20028;-52
2022/09/13 06:48:42;;;;;;;5.35;4.85;;;11.90;99.90;;;;;;5089836;28;20058;-51
2022/09/13 06:51:28;;;;;;;5.75;4.93;;;12.00;99.90;;;;;;5090050;28;20274;-50
2022/09/13 06:53:55;;;;;;;5.82;5.03;;;12.20;99.90;;;;;;5090097;28;20095;-53
2022/09/13 06:56:26;;;;;;;5.22;4.72;;;12.20;99.90;;;;;;5089868;28;20016;-52
2022/09/13 06:58:55;;;;;;;7.72;5.07;;;12.40;99.90;;;;;;5090496;28;20020;-52
2022/09/13 07:01:23;;;;;;;5.55;5.05;;;12.50;99.90;;;;;;5090260;28;20081;-51
2022/09/13 07:03:54;;;;;;;11.05;5.75;;;12.60;99.90;;;;;;5090115;28;20039;-51
2022/09/13 07:06:23;;;;;;;7.80;5.75;;;12.80;99.90;;;;;;5089944;28;20024;-51
2022/09/13 07:08:50;;;;;;;8.18;5.80;;;13.00;99.90;;;;;;5089458;28;20032;-51
2022/09/13 07:11:18;;;;;;;8.35;5.65;;;13.10;99.90;;;;;;5091333;28;20099;-50
2022/09/13 07:13:51;;;;;;;9.00;5.13;;;13.20;99.90;;;;;;5093509;28;20089;-52
2022/09/13 07:16:19;;;;;;;5.32;4.90;;;13.40;99.90;;;;;;5093729;28;20107;-51
2022/09/13 07:18:49;;;;;;;7.25;4.68;;;13.50;99.90;;;;;;5093432;28;20093;-51
2022/09/13 07:21:16;;;;;;;6.07;5.47;;;13.70;99.90;;;;;;5093593;28;20115;-51
2022/09/13 07:23:42;;;;;;;6.40;5.30;;;13.80;99.90;;;;;;5093507;28;20482;-52
2022/09/13 07:26:09;;;;;;;5.90;5.40;;;14.00;99.90;;;;;;5093602;28;20016;-52
2022/09/13 07:28:40;;;;;;;10.18;4.93;;;14.10;99.90;;;;;;5092140;28;20032;-51
2022/09/13 07:31:14;;;;;;;6.75;4.50;;;14.30;99.90;;;;;;5093389;28;20050;-50
2022/09/13 07:33:41;;;;;;;5.75;5.10;;;14.40;99.90;;;;;;5093283;28;20012;-51
2022/09/13 07:36:08;;;;;;;5.97;4.75;;;14.50;99.90;;;;;;5093279;28;20115;-50
2022/09/13 07:38:39;;;;;;;6.32;4.72;;;14.60;99.90;;;;;;5092883;28;20020;-51
2022/09/13 07:41:11;;;;;;;11.32;4.72;;;14.70;99.90;;;;;;5093001;28;20054;-51
2022/09/13 07:43:37;;;;;;;7.75;4.55;;;14.80;99.90;;;;;;5092944;28;20027;-53
2022/09/13 07:46:06;;;;;;;8.07;5.03;;;14.90;99.90;;;;;;5093071;28;20017;-53
2022/09/13 07:48:34;;;;;;;7.03;4.25;;;15.10;99.90;;;;;;5092797;28;20028;-51
2022/09/13 07:51:21;;;;;;;6.53;4.55;;;15.30;99.90;;;;;;5092871;28;20498;-51
2022/09/13 07:53:48;;;;;;;7.75;4.30;;;15.50;99.90;;;;;;5091590;28;20055;-52
2022/09/13 07:56:18;;;;;;;5.75;4.53;;;15.60;99.90;;;;;;5092881;28;20020;-51
2022/09/13 07:58:45;;;;;;;5.22;4.43;;;15.80;99.90;;;;;;5092831;28;20172;-51
2022/09/13 08:01:15;;;;;;;7.47;4.60;;;15.90;99.90;;;;;;5092814;28;20107;-51
2022/09/13 08:03:41;;;;;;;6.45;4.78;;;15.80;99.90;;;;;;5092740;28;20424;-52
2022/09/13 08:06:07;;;;;;;6.40;4.53;;;16.00;99.90;;;;;;5092752;28;20050;-51
2022/09/13 08:08:34;;;;;;;6.15;4.22;;;16.10;99.90;;;;;;5091033;28;20040;-51
2022/09/13 08:11:01;;;;;;;4.47;4.07;;;16.20;99.90;;;;;;5091184;28;20086;-51
2022/09/13 08:13:27;;;;;;;4.72;3.92;;;16.30;99.90;;;;;;5092570;28;20099;-51
2022/09/13 08:15:54;;;;;;;4.93;4.38;;;16.50;99.90;;;;;;5092225;28;20474;-53
2022/09/13 08:18:20;;;;;;;4.10;3.70;;;16.70;99.90;;;;;;5092438;28;20054;-51
2022/09/13 08:20:46;;;;;;;10.23;3.85;;;16.80;99.90;;;;;;5092238;28;20055;-53
2022/09/13 08:23:13;;;;;;;7.47;4.07;;;17.00;99.90;;;;;;5091805;28;20028;-51
2022/09/13 08:25:39;;;;;;;5.07;4.18;;;17.10;99.90;;;;;;5090915;28;20054;-52
2022/09/13 08:28:13;;;;;;;5.93;3.60;;;17.20;99.90;;;;;;5092060;28;20036;-50
2022/09/13 08:30:41;;;;;;;6.03;4.20;;;17.30;99.90;;;;;;5092006;28;20028;-51
2022/09/13 08:33:07;;;;;;;6.10;3.80;;;17.30;99.90;;;;;;5092239;28;20020;-51
2022/09/13 08:35:33;;;;;;;6.32;3.67;;;17.30;99.90;;;;;;5091943;28;20050;-52
2022/09/13 08:37:59;;;;;;;5.13;3.72;;;17.50;99.90;;;;;;5091999;28;20103;-52
2022/09/13 08:40:30;;;;;;;10.77;3.92;;;17.70;99.90;;;;;;5091880;28;20046;-52
2022/09/13 08:43:11;;;;;;;6.28;3.13;;;18.00;99.90;;;;;;5092052;28;20024;-52
2022/09/13 08:45:37;;;;;;;6.75;3.10;;;18.20;99.90;;;;;;5091708;28;20495;-51
2022/09/13 08:48:20;;;;;;;6.38;2.60;;;18.40;99.90;;;;;;5091888;28;20020;-51
2022/09/13 08:50:47;;;;;;;3.40;2.75;;;18.50;99.90;;;;;;5091697;28;20043;-50
2022/09/13 08:53:29;;;;;;;6.93;3.60;;;18.80;99.90;;;;;;5091811;28;20020;-54
2022/09/13 08:56:22;;;;;;;5.65;3.50;;;19.00;99.90;;;;;;5091754;28;20024;-50
2022/09/13 08:58:54;;;;;;;3.07;2.77;;;19.20;99.90;;;;;;5090226;28;20595;-50
2022/09/13 09:01:35;;;;;;;3.15;2.75;;;19.30;99.90;;;;;;5090336;28;20031;-51
2022/09/13 09:04:21;;;;;;;3.30;2.78;;;19.40;99.90;;;;;;5091740;28;20027;-51
2022/09/13 09:06:47;;;;;;;6.63;2.53;;;19.60;99.90;;;;;;5091313;28;20053;-50
2022/09/13 09:09:18;;;;;;;7.50;2.78;;;19.70;99.90;;;;;;5091184;28;20040;-49
2022/09/13 09:12:06;;;;;;;3.33;2.95;;;19.80;99.90;;;;;;5089686;28;20020;-52
2022/09/13 09:14:37;;;;;;;4.15;2.50;;;19.90;99.90;;;;;;5061781;28;20386;-51
2022/09/13 09:17:10;;;;;;;3.72;2.72;;;20.10;99.90;;;;;;5091328;28;20053;-50
2022/09/13 09:19:36;;;;;;;;;;;20.40;99.90;;;;;;5091653;28;20027;-52
2022/09/13 09:22:10;;;;;;;2.67;2.33;;;20.50;99.90;;;;;;5091047;28;20358;-51
2022/09/13 09:24:38;;;;;;;3.13;2.38;;;20.60;99.90;;;;;;5089709;28;20537;-51
2022/09/13 09:27:18;;;;;;;10.23;2.97;;;20.80;99.90;;;;;;5091316;28;20031;-52
2022/09/13 09:29:46;;;;;;;2.53;2.33;;;21.00;99.90;;;;;;5090939;28;20032;-51
2022/09/13 09:32:35;;;;;;;6.38;2.53;;;21.20;99.90;;;;;;5085638;28;20125;-51
2022/09/13 09:35:16;;;;;;;4.57;2.63;;;21.30;99.90;;;;;;5070600;28;20131;-52
2022/09/13 09:37:46;;;;;;;2.80;2.50;;;21.60;99.90;;;;;;5070272;28;20071;-50
2022/09/13 09:40:13;;;;;;;2.35;2.10;;;21.90;99.90;;;;;;5070669;28;20392;-50
2022/09/13 09:42:43;;;;;;;2.72;2.30;;;22.00;99.90;;;;;;5070333;28;20059;-51
2022/09/13 09:45:28;;;;;;;3.67;2.20;;;22.30;99.70;;;;;;5069286;28;20552;-52
2022/09/13 09:47:55;;;;;;;5.07;2.38;;;22.50;97.90;;;;;;5070167;28;20058;-52
2022/09/13 09:50:26;;;;;;;5.20;2.22;;;22.70;97.70;;;;;;5070449;28;20031;-51
2022/09/13 09:53:19;;;;;;;3.45;2.10;;;22.80;97.50;;;;;;5070916;28;20464;-51
2022/09/13 09:55:47;;;;;;;3.00;2.20;;;22.80;97.20;;;;;;5064758;28;20081;-51
2022/09/13 09:58:17;;;;;;;5.32;2.40;;;23.20;98.30;;;;;;5070353;28;20013;-50
2022/09/13 10:00:56;;;;;;;2.10;1.90;;;23.20;96.10;;;;;;5070293;28;20491;-53
2022/09/13 10:03:30;;;;;;;3.60;2.03;;;23.30;97.30;;;;;;5070381;28;20025;-51
2022/09/13 10:06:13;;;;;;;5.32;2.03;;;23.70;94.50;;;;;;5070227;28;20020;-51
2022/09/13 10:08:40;;;;;;;2.87;2.53;;;23.80;95.90;;;;;;5070044;28;20056;-51
2022/09/13 10:11:06;;;;;;;6.03;2.03;;;23.80;94.00;;;;;;5070216;28;20516;-51
2022/09/13 10:13:32;;;;;;;2.53;1.85;;;23.40;92.70;;;;;;5070041;28;20476;-51
2022/09/13 10:16:06;;;;;;;2.78;1.50;;;23.50;93.40;;;;;;5070333;28;20016;-51
2022/09/13 10:18:34;;;;;;;3.10;1.35;;;23.90;94.20;;;;;;5069963;28;20020;-51
2022/09/13 10:21:18;;;;;;;2.10;1.80;;;24.10;94.00;;;;;;5070123;28;20029;-51
2022/09/13 10:23:49;;;;;;;;;;;24.10;92.30;;;;;;5070503;28;20440;-51
2022/09/13 10:26:24;;;;;;;1.77;1.55;;;24.30;94.40;;;;;;5070124;28;19904;-51
2022/09/13 10:28:50;;;;;;;3.10;1.85;;;24.30;92.70;;;;;;5070403;28;20016;-51
2022/09/13 10:31:18;;;;;;;4.30;2.25;;;24.30;92.10;;;;;;5070178;28;20435;-51
2022/09/13 10:33:50;;;;;;;2.25;1.65;;;24.40;91.50;;;;;;5069867;28;20248;-51
2022/09/13 10:36:35;;;;;;;2.47;1.50;;;24.60;91.80;;;;;;5069997;28;20016;-52
2022/09/13 10:39:07;;;;;;;2.08;1.30;;;24.50;90.90;;;;;;5070091;28;20021;-53
2022/09/13 10:41:40;;;;;;;3.33;1.52;;;24.50;90.30;;;;;;5069895;28;20411;-51
2022/09/13 10:44:29;;;;;;;3.38;1.33;;;24.90;90.70;;;;;;5069950;28;20024;-54
2022/09/13 10:46:58;;;;;;;2.50;1.88;;;24.90;89.10;;;;;;5072735;28;20353;-53
2022/09/13 10:49:38;;;;;;;3.85;1.85;;;25.10;88.30;;;;;;5072564;28;20483;-52
2022/09/13 10:52:24;;;;;;;8.48;1.58;;;25.20;87.80;;;;;;5073929;28;20025;-49
2022/09/13 10:54:52;;;;;;;2.10;1.70;;;25.70;88.20;;;;;;5073797;28;20098;-51
2022/09/13 10:57:36;;;;;;;1.42;1.30;;;26.20;85.20;;;;;;5073782;28;20042;-52
2022/09/13 11:00:09;;;;;;;2.08;1.40;;;26.60;81.30;;;;;;5073685;28;20411;-51
2022/09/13 11:02:59;;;;;;;3.83;1.40;;;27.40;79.10;;;;;;5073598;28;20037;-51
2022/09/13 11:05:28;;;;;;;4.07;1.30;;;27.90;77.60;;;;;;5073667;28;20116;-53
2022/09/13 11:08:15;;;;;;;2.80;1.45;;;27.80;75.10;;;;;;5073297;28;20024;-52
2022/09/13 11:11:03;;;;;;;4.05;1.58;;;27.90;75.60;;;;;;5073197;28;20052;-54
2022/09/13 11:13:38;;;;;;;2.28;1.10;;;29.00;74.00;;;;;;5073327;28;20013;-53
2022/09/13 11:16:14;;;;;;;5.82;1.42;;;31.20;69.80;;;;;;5073529;28;20025;-53
2022/09/13 11:18:48;;;;;;;2.05;1.20;;;32.40;66.10;;;;;;5073170;28;20472;-52
2022/09/13 11:21:36;;;;;;;3.75;1.00;;;32.50;61.50;;;;;;5073443;28;20051;-50
2022/09/13 11:24:04;;;;;;;5.95;1.67;;;32.30;58.70;;;;;;5071970;28;20024;-53
2022/09/13 11:26:45;;;;;;;1.00;0.90;;;32.80;58.30;;;;;;5073078;28;20032;-53
2022/09/13 11:29:48;;;;;;;2.17;1.00;;;32.30;57.90;;;;;;5073123;28;20312;-51
2022/09/13 11:32:39;;;;;;;3.30;0.98;;;33.50;61.60;;;;;;5073242;28;20025;-52
2022/09/13 11:35:19;;;;;;;1.80;0.90;;;33.60;52.50;;;;;;5072936;28;20224;-53
2022/09/13 11:38:22;;;;;;;1.80;0.98;;;33.40;55.70;;;;;;5072632;28;20048;-54
2022/09/13 11:40:48;;;;;;;3.70;1.10;;;33.40;51.00;;;;;;5072763;28;20468;-51
2022/09/13 11:43:25;;;;;;;1.25;0.60;;;33.10;51.70;;;;;;5072962;28;20027;-51
2022/09/13 11:45:57;;;;;;;10.38;1.25;;;34.90;50.90;;;;;;5072856;28;20017;-52
2022/09/13 11:48:36;;;;;;;1.25;0.60;;;35.90;48.70;;;;;;5072872;28;20349;-51
2022/09/13 11:51:08;;;;;;;1.92;0.80;;;36.70;48.50;;;;;;5072969;28;20162;-54
2022/09/13 11:54:05;;;;;;;1.55;0.50;;;36.80;47.00;;;;;;5072594;28;20029;-52
2022/09/13 11:56:38;;;;;;;1.42;0.57;;;37.20;45.70;;;;;;5072480;28;20017;-52
2022/09/13 11:59:36;;;;;;;0.88;0.60;;;36.90;44.70;;;;;;5071820;28;20279;-51
2022/09/13 12:02:17;;;;;;;2.50;0.52;;;36.20;44.10;;;;;;5072650;28;20021;-52
2022/09/13 12:04:43;;;;;;;0.87;0.70;;;35.40;44.90;;;;;;5071181;28;20036;-55
2022/09/13 12:07:16;;;;;;;1.85;0.70;;;35.40;46.60;;;;;;5072533;28;20243;-54
2022/09/13 12:09:54;;;;;;;1.38;0.80;;;35.70;44.50;;;;;;5072097;28;20486;-53
2022/09/13 12:12:24;;;;;;;0.60;0.60;;;35.90;43.80;;;;;;5072470;28;20017;-54
2022/09/13 12:15:04;;;;;;;0.85;0.50;;;36.60;42.40;;;;;;5072237;28;20495;-53
2022/09/13 12:17:55;;;;;;;0.85;0.50;;;37.10;44.60;;;;;;5072186;28;20124;-55
2022/09/13 12:20:37;;;;;;;4.50;0.40;;;37.80;41.80;;;;;;5064824;28;20036;-54
2022/09/13 12:23:11;;;;;;;5.55;0.63;;;36.40;40.60;;;;;;5072100;28;20077;-53
2022/09/13 12:25:53;;;;;;;0.63;0.38;;;36.50;41.60;;;;;;5071881;28;20103;-54
2022/09/13 12:28:26;;;;;;;;;;;36.00;43.10;;;;;;5072755;28;20495;-54
2022/09/13 12:30:59;;;;;;;0.73;0.70;;;35.60;42.70;;;;;;5071957;28;20027;-55
2022/09/13 12:33:25;;;;;;;1.50;0.50;;;35.30;42.30;;;;;;5072109;28;20028;-54
2022/09/13 12:36:08;;;;;;;1.65;0.82;;;36.40;41.90;;;;;;5072018;28;20024;-54
2022/09/13 12:38:46;;;;;;;3.05;0.47;;;35.40;41.80;;;;;;5071796;28;20016;-51
2022/09/13 12:41:30;;;;;;;1.33;0.30;;;35.70;41.00;;;;;;5072116;28;20388;-49
2022/09/13 12:44:05;;;;;;;0.47;0.28;;;35.20;41.70;;;;;;5071849;28;20467;-54
2022/09/13 12:46:44;;;;;;;1.17;0.40;;;33.50;43.50;;;;;;5071584;28;20060;-52
2022/09/13 12:49:34;;;;;;;1.17;0.52;;;33.50;43.80;;;;;;5071681;28;20021;-52
2022/09/13 12:52:21;;;;;;;4.22;0.63;;;32.70;44.20;;;;;;5071692;28;20025;-53
2022/09/13 12:54:56;;;;;;;1.40;0.88;;;32.00;46.50;;;;;;5071342;28;20348;-53
2022/09/13 12:58:04;;;;;;;3.80;0.63;;;31.00;45.50;;;;;;5071497;28;20024;-53
2022/09/13 13:00:37;;;;;;;0.88;0.40;;;30.90;52.30;;;;;;5035320;28;20071;-51
2022/09/13 13:03:07;;;;;;;1.25;0.50;;;31.60;49.30;;;;;;5071254;28;20021;-56
2022/09/13 13:05:38;;;;;;;2.05;0.85;;;32.70;47.00;;;;;;5071246;28;20442;-53
2022/09/13 13:08:28;;;;;;;0.73;0.30;;;33.60;42.90;;;;;;5071363;28;20451;-51
2022/09/13 13:11:06;;;;;;;1.30;0.35;;;32.10;45.20;;;;;;5065806;28;20102;-55
2022/09/13 13:13:52;;;;;;;2.28;0.70;;;30.70;52.90;;;;;;5069673;28;20448;-54
2022/09/13 13:16:30;;;;;;;1.00;0.47;;;30.50;56.00;;;;;;5071116;28;20075;-54
2022/09/13 13:19:04;;;;;;;1.55;0.70;;;31.50;55.10;;;;;;5069609;28;20474;-55
2022/09/13 13:21:32;;;;;;;1.05;0.73;;;32.10;47.90;;;;;;5070965;28;20020;-50